createdAt,value
2023-01-09T00:01:42.820Z,97781.77
2023-01-09T00:04:11.503Z,97778.33
2023-01-09T00:06:43.629Z,97777.67
2023-01-09T00:09:11.838Z,97771.21
2023-01-09T00:11:39.959Z,97772.20
2023-01-09T00:14:09.644Z,97767.55
2023-01-09T00:16:39.097Z,97765.90
2023-01-09T00:19:07.374Z,97765.14
2023-01-09T00:21:36.796Z,97774.14
2023-01-09T00:24:06.160Z,97778.50
2023-01-09T00:26:34.670Z,97777.66
2023-01-09T00:29:04.011Z,97781.16
2023-01-09T00:31:32.448Z,97767.70
2023-01-09T00:34:05.795Z,97767.39
2023-01-09T00:36:33.945Z,97757.39
2023-01-09T00:39:02.294Z,97758.86
2023-01-09T00:41:52.157Z,97763.27
2023-01-09T00:44:30.631Z,97766.25
2023-01-09T00:47:08.539Z,97764.42
2023-01-09T00:49:37.547Z,97767.79
2023-01-09T00:52:07.232Z,97764.14
2023-01-09T00:54:35.481Z,97765.71
2023-01-09T00:57:03.875Z,97759.95
2023-01-09T00:59:32.070Z,97755.39
2023-01-09T01:02:00.479Z,97753.52
2023-01-09T01:04:47.496Z,97752.16
2023-01-09T01:07:34.332Z,97756.32
2023-01-09T01:10:03.476Z,97756.40
2023-01-09T01:12:31.602Z,97748.13
2023-01-09T01:15:00.009Z,97749.15
2023-01-09T01:17:28.153Z,97741.94
2023-01-09T01:19:56.378Z,97735.39
2023-01-09T01:22:24.834Z,97725.70
2023-01-09T01:24:52.941Z,97717.05
2023-01-09T01:27:21.059Z,97714.25
2023-01-09T01:29:49.295Z,97711.50
2023-01-09T01:32:17.363Z,97713.52
2023-01-09T01:34:47.540Z,97715.11
2023-01-09T01:37:15.942Z,97711.30
2023-01-09T01:39:44.092Z,97708.80
2023-01-09T01:42:14.425Z,97702.31
2023-01-09T01:45:03.538Z,97702.66
2023-01-09T01:47:38.498Z,97696.89
2023-01-09T01:50:35.634Z,97686.69
2023-01-09T01:53:11.605Z,97678.39
2023-01-09T01:55:47.560Z,97678.41
2023-01-09T01:58:16.354Z,97674.71
2023-01-09T02:00:47.879Z,97673.24
2023-01-09T02:03:20.162Z,97675.88
2023-01-09T02:05:49.135Z,97673.63
2023-01-09T02:08:18.062Z,97670.01
2023-01-09T02:10:46.718Z,97664.42
2023-01-09T02:13:15.265Z,97666.45
2023-01-09T02:15:58.601Z,97664.72
2023-01-09T02:18:52.155Z,97661.84
2023-01-09T02:22:16.355Z,97657.20
2023-01-09T02:25:28.600Z,97651.52
2023-01-09T02:28:32.892Z,97649.64
2023-01-09T02:31:21.949Z,97652.13
2023-01-09T02:34:28.303Z,97649.81
2023-01-09T02:36:56.360Z,97645.55
2023-01-09T02:39:38.406Z,97636.17
2023-01-09T02:42:17.971Z,97636.41
2023-01-09T02:44:46.326Z,97638.34
2023-01-09T02:47:20.719Z,97641.33
2023-01-09T02:50:05.230Z,97630.40
2023-01-09T02:53:04.203Z,97631.77
2023-01-09T02:55:57.042Z,97628.23
2023-01-09T02:59:14.548Z,97616.73
2023-01-09T03:01:58.300Z,97613.55
2023-01-09T03:04:55.702Z,97615.37
2023-01-09T03:07:53.891Z,97614.15
2023-01-09T03:10:38.737Z,97603.98
2023-01-09T03:13:10.784Z,97602.21
2023-01-09T03:15:42.420Z,97604.83
2023-01-09T03:18:13.995Z,97606.92
2023-01-09T03:20:42.930Z,97608.45
2023-01-09T03:23:10.988Z,97607.39
2023-01-09T03:25:39.183Z,97603.36
2023-01-09T03:28:18.633Z,97603.66
2023-01-09T03:30:46.780Z,97601.36
2023-01-09T03:33:14.872Z,97604.73
2023-01-09T03:35:42.982Z,97600.89
2023-01-09T03:38:11.334Z,97600.74
2023-01-09T03:40:40.258Z,97598.88
2023-01-09T03:43:08.403Z,97598.23
2023-01-09T03:45:36.657Z,97601.71
2023-01-09T03:48:05.245Z,97603.70
2023-01-09T03:50:33.360Z,97597.73
2023-01-09T03:53:01.844Z,97596.56
2023-01-09T03:55:30.134Z,97595.23
2023-01-09T03:57:58.238Z,97587.19
2023-01-09T04:00:26.455Z,97588.50
2023-01-09T04:02:54.587Z,97585.30
2023-01-09T04:05:22.813Z,97589.79
2023-01-09T04:07:50.995Z,97585.04
2023-01-09T04:10:19.205Z,97585.34
2023-01-09T04:12:47.316Z,97580.40
2023-01-09T04:15:15.586Z,97582.15
2023-01-09T04:17:43.707Z,97580.88
2023-01-09T04:20:12.224Z,97574.98
2023-01-09T04:22:40.648Z,97577.38
2023-01-09T04:25:09.636Z,97577.09
2023-01-09T04:27:37.841Z,97575.80
2023-01-09T04:30:06.904Z,97573.35
2023-01-09T04:32:35.031Z,97567.63
2023-01-09T04:35:03.271Z,97568.00
2023-01-09T04:37:31.402Z,97570.38
2023-01-09T04:39:59.532Z,97572.26
2023-01-09T04:42:27.639Z,97574.68
2023-01-09T04:44:55.830Z,97565.84
2023-01-09T04:47:24.105Z,97565.91
2023-01-09T04:49:52.349Z,97571.40
2023-01-09T04:52:20.549Z,97571.59
2023-01-09T04:54:48.694Z,97569.34
2023-01-09T04:57:17.528Z,97568.85
2023-01-09T04:59:45.686Z,97569.70
2023-01-09T05:02:14.211Z,97567.10
2023-01-09T05:04:42.753Z,97566.30
2023-01-09T05:07:10.878Z,97563.79
2023-01-09T05:09:39.052Z,97566.83
2023-01-09T05:12:07.761Z,97563.06
2023-01-09T05:14:35.890Z,97568.27
2023-01-09T05:17:04.046Z,97566.48
2023-01-09T05:19:32.178Z,97561.48
2023-01-09T05:22:00.297Z,97558.02
2023-01-09T05:24:28.506Z,97558.39
2023-01-09T05:26:56.683Z,97555.41
2023-01-09T05:29:25.016Z,97554.02
2023-01-09T05:31:53.169Z,97547.31
2023-01-09T05:34:22.052Z,97551.70
2023-01-09T05:36:50.139Z,97556.73
2023-01-09T05:39:18.309Z,97556.88
2023-01-09T05:41:46.405Z,97551.40
2023-01-09T05:44:14.551Z,97548.41
2023-01-09T05:46:42.748Z,97547.45
2023-01-09T05:49:10.906Z,97548.08
2023-01-09T05:51:39.070Z,97548.69
2023-01-09T05:54:07.585Z,97544.27
2023-01-09T05:56:35.765Z,97541.91
2023-01-09T05:59:03.876Z,97543.23
2023-01-09T06:01:32.064Z,97542.39
2023-01-09T06:04:00.235Z,97544.88
2023-01-09T06:06:28.406Z,97539.16
2023-01-09T06:08:56.517Z,97541.76
2023-01-09T06:11:24.689Z,97544.36
2023-01-09T06:13:52.786Z,97543.73
2023-01-09T06:16:20.948Z,97539.31
2023-01-09T06:18:49.091Z,97540.61
2023-01-09T06:21:17.328Z,97546.63
2023-01-09T06:23:45.598Z,97541.71
2023-01-09T06:26:13.875Z,97542.01
2023-01-09T06:28:44.501Z,97540.88
2023-01-09T06:31:13.391Z,97545.82
2023-01-09T06:33:41.843Z,97548.41
2023-01-09T06:36:10.057Z,97546.10
2023-01-09T06:38:38.192Z,97542.09
2023-01-09T06:41:06.604Z,97543.25
2023-01-09T06:43:34.774Z,97546.33
2023-01-09T06:46:04.282Z,97543.98
2023-01-09T06:48:33.521Z,97544.73
2023-01-09T06:51:02.092Z,97544.78
2023-01-09T06:53:30.242Z,97545.15
2023-01-09T06:55:58.400Z,97545.43
2023-01-09T06:58:26.559Z,97539.43
2023-01-09T07:00:56.197Z,97531.95
2023-01-09T07:03:24.401Z,97532.69
2023-01-09T07:05:52.545Z,97527.77
2023-01-09T07:08:20.756Z,97527.34
2023-01-09T07:10:49.165Z,97528.85
2023-01-09T07:13:17.274Z,97531.92
2023-01-09T07:15:45.517Z,97527.52
2023-01-09T07:18:13.681Z,97529.30
2023-01-09T07:20:42.326Z,97531.84
2023-01-09T07:23:13.846Z,97525.02
2023-01-09T07:25:43.026Z,97527.48
2023-01-09T07:28:11.641Z,97523.36
2023-01-09T07:30:39.771Z,97522.67
2023-01-09T07:33:07.946Z,97521.81
2023-01-09T07:35:36.248Z,97517.17
2023-01-09T07:38:04.489Z,97517.88
2023-01-09T07:40:32.629Z,97520.57
2023-01-09T07:43:00.888Z,97511.41
2023-01-09T07:45:28.985Z,97511.76
2023-01-09T07:47:59.654Z,97509.82
2023-01-09T07:50:27.969Z,97510.58
2023-01-09T07:52:56.122Z,97510.73
2023-01-09T07:55:24.275Z,97510.01
2023-01-09T07:57:52.944Z,97502.83
2023-01-09T08:00:21.527Z,97494.66
2023-01-09T08:02:53.989Z,97494.31
2023-01-09T08:05:22.751Z,97493.23
2023-01-09T08:07:51.479Z,97493.07
2023-01-09T08:10:20.629Z,97490.42
2023-01-09T08:12:49.652Z,97493.20
2023-01-09T08:15:18.043Z,97489.83
2023-01-09T08:17:46.744Z,97485.46
2023-01-09T08:20:17.452Z,97474.13
2023-01-09T08:22:49.724Z,97475.89
2023-01-09T08:25:18.383Z,97478.20
2023-01-09T08:27:47.037Z,97483.95
2023-01-09T08:30:16.708Z,97488.82
2023-01-09T08:32:50.740Z,97483.74
2023-01-09T08:35:19.241Z,97487.59
2023-01-09T08:37:48.713Z,97484.79
2023-01-09T08:40:18.215Z,97478.71
2023-01-09T08:43:04.985Z,97473.64
2023-01-09T08:46:26.043Z,97469.89
2023-01-09T08:48:54.249Z,97465.17
2023-01-09T08:51:22.436Z,97457.52
2023-01-09T08:53:50.542Z,97450.94
2023-01-09T08:56:18.659Z,97451.26
2023-01-09T08:58:46.779Z,97446.87
2023-01-09T09:01:14.910Z,97440.75
2023-01-09T09:03:43.082Z,97433.34
2023-01-09T09:06:11.192Z,97429.13
2023-01-09T09:08:39.312Z,97418.34
2023-01-09T09:11:07.571Z,97415.77
2023-01-09T09:13:35.730Z,97415.30
2023-01-09T09:16:04.003Z,97418.45
2023-01-09T09:18:32.140Z,97416.41
2023-01-09T09:21:00.236Z,97406.92
2023-01-09T09:23:28.349Z,97414.91
2023-01-09T09:25:56.509Z,97412.92
2023-01-09T09:28:24.589Z,97409.35
2023-01-09T09:30:52.713Z,97412.13
2023-01-09T09:33:20.997Z,97408.64
2023-01-09T09:35:49.168Z,97409.35
2023-01-09T09:38:17.939Z,97409.75
2023-01-09T09:41:07.434Z,97398.58
2023-01-09T09:44:30.784Z,97395.20
2023-01-09T09:47:20.534Z,97392.55
2023-01-09T09:50:42.725Z,97390.63
2023-01-09T09:53:26.480Z,97383.58
2023-01-09T09:55:54.752Z,97383.58
2023-01-09T09:58:41.739Z,97375.96
2023-01-09T10:01:15.700Z,97369.83
2023-01-09T10:03:49.013Z,97358.46
2023-01-09T10:06:42.463Z,97359.83
2023-01-09T10:09:37.102Z,97349.41
2023-01-09T10:12:15.707Z,97344.48
2023-01-09T10:14:43.896Z,97347.30
2023-01-09T10:17:38.332Z,97333.92
2023-01-09T10:20:40.652Z,97336.73
2023-01-09T10:23:11.657Z,97339.07
2023-01-09T10:26:12.005Z,97339.20
2023-01-09T10:29:12.663Z,97327.35
2023-01-09T10:31:54.280Z,97321.98
2023-01-09T10:34:28.519Z,97314.40
2023-01-09T10:37:15.178Z,97304.67
2023-01-09T10:40:14.875Z,97301.27
2023-01-09T10:42:47.460Z,97293.80
2023-01-09T10:45:36.673Z,97289.27
2023-01-09T10:48:35.511Z,97286.98
2023-01-09T10:51:31.755Z,97278.95
2023-01-09T10:53:59.860Z,97279.40
2023-01-09T10:56:34.465Z,97268.02
2023-01-09T10:59:02.689Z,97263.02
2023-01-09T11:01:34.596Z,97259.13
2023-01-09T11:04:03.151Z,97259.58
2023-01-09T11:06:47.678Z,97252.44
2023-01-09T11:09:16.917Z,97250.60
2023-01-09T11:11:45.491Z,97249.66
2023-01-09T11:14:27.956Z,97243.65
2023-01-09T11:17:04.165Z,97244.52
2023-01-09T11:19:35.549Z,97249.13
2023-01-09T11:22:14.576Z,97250.77
2023-01-09T11:24:43.011Z,97248.77
2023-01-09T11:27:14.250Z,97244.13
2023-01-09T11:29:43.386Z,97243.64
2023-01-09T11:32:24.868Z,97238.15
2023-01-09T11:34:53.011Z,97235.23
2023-01-09T11:37:31.415Z,97233.23
2023-01-09T11:40:01.004Z,97239.17
2023-01-09T11:42:48.630Z,97232.09
2023-01-09T11:45:20.488Z,97229.38
2023-01-09T11:47:48.668Z,97229.06
2023-01-09T11:50:25.178Z,97223.35
2023-01-09T11:53:16.483Z,97210.33
2023-01-09T11:55:47.274Z,97203.28
2023-01-09T11:58:21.867Z,97200.73
2023-01-09T12:01:17.105Z,97208.09
2023-01-09T12:04:12.993Z,97197.42
2023-01-09T12:06:43.911Z,97195.16
2023-01-09T12:09:28.545Z,97190.52
2023-01-09T12:12:23.966Z,97188.59
2023-01-09T12:15:08.600Z,97179.66
2023-01-09T12:17:56.488Z,97185.80
2023-01-09T12:20:41.653Z,97180.11
2023-01-09T12:23:49.884Z,97177.79
2023-01-09T12:26:52.298Z,97175.95
2023-01-09T12:29:58.258Z,97172.44
2023-01-09T12:33:02.951Z,97172.83
2023-01-09T12:35:38.916Z,97155.76
2023-01-09T12:38:47.898Z,97155.88
2023-01-09T12:41:34.100Z,97156.13
2023-01-09T12:44:35.873Z,97154.89
2023-01-09T12:47:46.066Z,97147.02
2023-01-09T12:50:43.381Z,97146.28
2023-01-09T12:53:22.099Z,97148.13
2023-01-09T12:56:11.627Z,97149.36
2023-01-09T12:58:49.396Z,97138.98
2023-01-09T13:01:26.269Z,97138.49
2023-01-09T13:04:24.425Z,97134.90
2023-01-09T13:07:02.326Z,97129.17
2023-01-09T13:09:47.474Z,97133.98
2023-01-09T13:12:21.568Z,97135.10
2023-01-09T13:15:02.180Z,97141.34
2023-01-09T13:17:44.013Z,97143.51
2023-01-09T13:20:29.722Z,97151.25
2023-01-09T13:23:00.177Z,97143.36
2023-01-09T13:25:36.881Z,97142.92
2023-01-09T13:28:18.760Z,97142.14
2023-01-09T13:31:46.448Z,97137.54
2023-01-09T13:34:22.860Z,97137.85
2023-01-09T13:36:54.805Z,97141.70
2023-01-09T13:39:25.679Z,97136.95
2023-01-09T13:42:18.331Z,97139.59
2023-01-09T13:44:49.440Z,97132.94
2023-01-09T13:47:28.052Z,97129.84
2023-01-09T13:50:11.819Z,97131.90
2023-01-09T13:52:42.263Z,97135.23
2023-01-09T13:55:16.105Z,97140.70
2023-01-09T13:58:05.836Z,97138.36
2023-01-09T14:00:36.937Z,97135.42
2023-01-09T14:03:38.353Z,97134.48
2023-01-09T14:06:14.307Z,97136.98
2023-01-09T14:08:44.163Z,97135.70
2023-01-09T14:11:20.614Z,97130.11
2023-01-09T14:14:00.352Z,97130.04
2023-01-09T14:16:30.296Z,97126.41
2023-01-09T14:19:27.690Z,97125.31
2023-01-09T14:21:58.099Z,97126.98
2023-01-09T14:24:42.657Z,97123.55
2023-01-09T14:28:03.657Z,97120.83
2023-01-09T14:31:00.406Z,97123.11
2023-01-09T14:33:32.635Z,97115.75
2023-01-09T14:36:19.494Z,97117.91
2023-01-09T14:38:53.226Z,97115.67
2023-01-09T14:42:06.374Z,97122.38
2023-01-09T14:44:53.265Z,97116.46
2023-01-09T14:47:55.534Z,97119.46
2023-01-09T14:50:51.257Z,97121.11
2023-01-09T14:53:30.701Z,97122.81
2023-01-09T14:56:01.744Z,97122.55
2023-01-09T14:58:36.890Z,97113.33
2023-01-09T15:01:12.461Z,97109.35
2023-01-09T15:03:51.519Z,97104.00
2023-01-09T15:06:28.131Z,97094.23
2023-01-09T15:09:03.469Z,97096.77
2023-01-09T15:11:33.585Z,97100.60
2023-01-09T15:14:04.349Z,97096.21
2023-01-09T15:16:33.631Z,97088.71
2023-01-09T15:19:06.249Z,97083.77
2023-01-09T15:21:34.474Z,97080.23
2023-01-09T15:24:27.204Z,97079.90
2023-01-09T15:27:01.956Z,97080.23
2023-01-09T15:29:30.295Z,97080.10
2023-01-09T15:32:29.733Z,97082.11
2023-01-09T15:34:58.091Z,97073.38
2023-01-09T15:37:32.938Z,97078.91
2023-01-09T15:40:05.323Z,97086.23
2023-01-09T15:42:57.146Z,97082.80
2023-01-09T15:45:29.417Z,97083.33
2023-01-09T15:48:24.590Z,97080.70
2023-01-09T15:51:11.988Z,97075.39
2023-01-09T15:53:50.284Z,97067.85
2023-01-09T15:56:30.675Z,97071.86
2023-01-09T15:59:00.576Z,97063.88
2023-01-09T16:01:37.332Z,97050.10
2023-01-09T16:04:17.078Z,97052.20
2023-01-09T16:06:51.299Z,97053.02
2023-01-09T16:09:28.250Z,97050.59
2023-01-09T16:12:04.125Z,97044.39
2023-01-09T16:14:38.537Z,97044.90
2023-01-09T16:17:18.641Z,97049.92
2023-01-09T16:20:18.082Z,97049.80
2023-01-09T16:22:55.508Z,97043.43
2023-01-09T16:25:37.069Z,97039.44
2023-01-09T16:28:28.241Z,97036.80
2023-01-09T16:31:03.708Z,97031.91
2023-01-09T16:33:32.135Z,97033.89
2023-01-09T16:36:00.913Z,97037.55
2023-01-09T16:38:29.157Z,97038.74
2023-01-09T16:41:24.874Z,97036.39
2023-01-09T16:43:53.120Z,97040.52
2023-01-09T16:46:21.656Z,97040.21
2023-01-09T16:48:49.966Z,97038.23
2023-01-09T16:51:22.291Z,97033.29
2023-01-09T16:53:50.490Z,97043.47
2023-01-09T16:56:23.396Z,97044.73
2023-01-09T16:58:54.703Z,97040.20
2023-01-09T17:01:23.275Z,97044.92
2023-01-09T17:03:52.589Z,97038.86
2023-01-09T17:06:39.590Z,97039.94
2023-01-09T17:09:17.950Z,97033.91
2023-01-09T17:11:46.319Z,97034.27
2023-01-09T17:14:14.921Z,97027.28
2023-01-09T17:16:46.778Z,97029.13
2023-01-09T17:19:20.684Z,97029.02
2023-01-09T17:21:48.937Z,97031.70
2023-01-09T17:24:35.936Z,97028.55
2023-01-09T17:27:22.842Z,97026.04
2023-01-09T17:29:50.959Z,97022.45
2023-01-09T17:32:19.307Z,97022.11
2023-01-09T17:34:47.457Z,97021.37
2023-01-09T17:37:18.129Z,97015.52
2023-01-09T17:39:46.442Z,97008.69
2023-01-09T17:42:14.647Z,97011.79
2023-01-09T17:44:42.744Z,97013.02
2023-01-09T17:47:15.438Z,97009.02
2023-01-09T17:49:43.718Z,97006.20
2023-01-09T17:52:12.063Z,97010.19
2023-01-09T17:54:40.406Z,97004.66
2023-01-09T17:57:16.255Z,96999.36
2023-01-09T17:59:44.990Z,97002.28
2023-01-09T18:02:18.565Z,97008.02
2023-01-09T18:04:46.833Z,97007.63
2023-01-09T18:07:17.208Z,97009.52
2023-01-09T18:09:45.416Z,97001.23
2023-01-09T18:12:13.741Z,97003.20
2023-01-09T18:14:42.218Z,96999.83
2023-01-09T18:17:13.158Z,97001.56
2023-01-09T18:19:41.325Z,97008.61
2023-01-09T18:22:09.439Z,97009.73
2023-01-09T18:24:37.762Z,97014.42
2023-01-09T18:27:05.879Z,97005.15
2023-01-09T18:29:34.100Z,96994.52
2023-01-09T18:32:02.239Z,96986.98
2023-01-09T18:34:30.403Z,96982.94
2023-01-09T18:36:58.549Z,96983.67
2023-01-09T18:40:11.885Z,96984.91
2023-01-09T18:42:41.027Z,96982.17
2023-01-09T18:45:10.514Z,96979.85
2023-01-09T18:47:38.685Z,96981.10
2023-01-09T18:50:07.343Z,96980.77
2023-01-09T18:52:35.454Z,96977.70
2023-01-09T18:55:04.209Z,96974.52
2023-01-09T18:57:32.293Z,96972.61
2023-01-09T19:00:00.633Z,96970.30
2023-01-09T19:02:28.888Z,96965.67
2023-01-09T19:04:57.134Z,96965.53
2023-01-09T19:07:25.387Z,96963.20
2023-01-09T19:09:53.714Z,96953.91
2023-01-09T19:12:21.924Z,96952.10
2023-01-09T19:14:50.112Z,96954.01
2023-01-09T19:17:18.245Z,96956.65
2023-01-09T19:19:46.361Z,96949.83
2023-01-09T19:22:15.228Z,96951.90
2023-01-09T19:24:43.528Z,96955.10
2023-01-09T19:27:11.769Z,96952.83
2023-01-09T19:29:40.234Z,96953.95
2023-01-09T19:32:08.651Z,96954.50
2023-01-09T19:34:36.823Z,96952.27
2023-01-09T19:37:05.220Z,96947.40
2023-01-09T19:39:33.982Z,96949.79
2023-01-09T19:42:02.134Z,96949.45
2023-01-09T19:44:32.511Z,96949.11
2023-01-09T19:47:00.640Z,96953.38
2023-01-09T19:49:28.797Z,96953.44
2023-01-09T19:51:57.013Z,96957.84
2023-01-09T19:54:25.192Z,96954.13
2023-01-09T19:56:53.283Z,96950.48
2023-01-09T19:59:21.459Z,96950.10
2023-01-09T20:01:49.708Z,96950.27
2023-01-09T20:04:18.732Z,96944.27
2023-01-09T20:06:49.547Z,96942.33
2023-01-09T20:09:22.254Z,96939.81
2023-01-09T20:11:50.429Z,96939.82
2023-01-09T20:14:19.887Z,96945.50
2023-01-09T20:16:48.863Z,96946.45
2023-01-09T20:19:17.263Z,96944.58
2023-01-09T20:21:45.437Z,96937.84
2023-01-09T20:24:16.889Z,96932.67
2023-01-09T20:26:48.474Z,96930.09
2023-01-09T20:29:16.998Z,96929.08
2023-01-09T20:31:45.158Z,96935.26
2023-01-09T20:34:14.874Z,96937.20
2023-01-09T20:36:43.583Z,96937.17
2023-01-09T20:39:12.369Z,96935.59
2023-01-09T20:41:40.785Z,96938.48
2023-01-09T20:44:14.455Z,96936.71
2023-01-09T20:46:49.441Z,96931.33
2023-01-09T20:49:18.625Z,96930.89
2023-01-09T20:51:50.543Z,96927.12
2023-01-09T20:54:21.709Z,96921.96
2023-01-09T20:56:50.551Z,96915.02
2023-01-09T20:59:22.847Z,96918.32
2023-01-09T21:01:51.503Z,96919.00
2023-01-09T21:04:20.128Z,96921.33
2023-01-09T21:06:50.220Z,96916.40
2023-01-09T21:09:20.260Z,96908.12
2023-01-09T21:11:48.409Z,96895.84
2023-01-09T21:14:16.806Z,96893.27
2023-01-09T21:16:53.842Z,96897.42
2023-01-09T21:19:23.400Z,96889.79
2023-01-09T21:21:53.271Z,96886.31
2023-01-09T21:24:21.845Z,96891.94
2023-01-09T21:26:49.935Z,96891.02
2023-01-09T21:29:18.136Z,96897.64
2023-01-09T21:31:46.421Z,96902.89
2023-01-09T21:34:17.430Z,96909.93
2023-01-09T21:36:48.919Z,96914.11
2023-01-09T21:39:20.334Z,96908.68
2023-01-09T21:42:06.997Z,96910.84
2023-01-09T21:44:54.448Z,96907.52
2023-01-09T21:47:22.963Z,96896.05
2023-01-09T21:49:51.323Z,96895.55
2023-01-09T21:52:19.517Z,96904.99
2023-01-09T21:54:47.703Z,96908.37
2023-01-09T21:57:15.825Z,96905.41
2023-01-09T21:59:44.237Z,96904.21
2023-01-09T22:02:15.857Z,96907.80
2023-01-09T22:04:48.839Z,96903.55
2023-01-09T22:07:17.912Z,96905.91
2023-01-09T22:09:46.079Z,96902.94
2023-01-09T22:12:14.227Z,96896.70
2023-01-09T22:14:42.356Z,96888.17
2023-01-09T22:17:10.480Z,96897.02
2023-01-09T22:19:38.718Z,96890.16
2023-01-09T22:22:08.610Z,96889.08
2023-01-09T22:24:37.056Z,96888.91
2023-01-09T22:27:05.236Z,96879.52
2023-01-09T22:29:33.489Z,96875.04
2023-01-09T22:32:01.670Z,96879.00
2023-01-09T22:34:31.178Z,96887.71
2023-01-09T22:36:59.542Z,96883.00
2023-01-09T22:39:27.902Z,96883.74
2023-01-09T22:41:56.152Z,96886.92
2023-01-09T22:44:24.239Z,96870.27
2023-01-09T22:46:52.367Z,96866.41
2023-01-09T22:49:20.478Z,96859.83
2023-01-09T22:51:48.696Z,96856.53
2023-01-09T22:54:17.043Z,96858.48
2023-01-09T22:56:45.211Z,96853.50
2023-01-09T22:59:13.381Z,96850.40
2023-01-09T23:01:41.551Z,96850.54
2023-01-09T23:04:13.877Z,96845.73
2023-01-09T23:06:42.219Z,96838.26
2023-01-09T23:09:10.377Z,96828.67
2023-01-09T23:11:57.034Z,96827.13
2023-01-09T23:14:25.150Z,96822.63
2023-01-09T23:16:53.734Z,96818.88
2023-01-09T23:19:22.343Z,96828.96
2023-01-09T23:21:50.657Z,96831.69
2023-01-09T23:24:19.286Z,96837.70
2023-01-09T23:26:47.839Z,96833.45
2023-01-09T23:29:16.117Z,96835.47
2023-01-09T23:31:45.534Z,96838.58
2023-01-09T23:34:19.762Z,96841.65
2023-01-09T23:36:48.272Z,96838.96
2023-01-09T23:39:16.818Z,96838.40
2023-01-09T23:42:04.187Z,96832.78
2023-01-09T23:44:33.085Z,96830.79
2023-01-09T23:47:01.168Z,96822.98
2023-01-09T23:49:29.490Z,96825.05
2023-01-09T23:51:58.016Z,96830.95
2023-01-09T23:54:26.161Z,96827.22
2023-01-09T23:56:56.456Z,96829.54
2023-01-09T23:59:24.829Z,96827.66
